createdAt,value
2018-09-26T00:00:49.786Z,83.54
2018-09-26T00:01:58.570Z,83.54
2018-09-26T00:03:10.495Z,83.49
2018-09-26T00:04:21.595Z,83.55
2018-09-26T00:05:26.803Z,83.57
2018-09-26T00:06:31.210Z,83.18
2018-09-26T00:07:35.612Z,83.06
2018-09-26T00:08:41.881Z,83.17
2018-09-26T00:09:47.724Z,83.22
2018-09-26T00:10:52.431Z,83.34
2018-09-26T00:11:57.000Z,83.29
2018-09-26T00:13:01.526Z,83.28
2018-09-26T00:14:05.997Z,83.13
2018-09-26T00:15:10.414Z,83.26
2018-09-26T00:16:16.566Z,83.66
2018-09-26T00:17:20.962Z,83.64
2018-09-26T00:18:25.419Z,83.61
2018-09-26T00:19:29.837Z,83.65
2018-09-26T00:20:34.260Z,83.83
2018-09-26T00:21:38.679Z,84.14
2018-09-26T00:22:43.469Z,84.53
2018-09-26T00:23:47.951Z,84.53
2018-09-26T00:24:52.357Z,84.82
2018-09-26T00:25:56.881Z,84.50
2018-09-26T00:27:01.550Z,84.94
2018-09-26T00:28:05.972Z,84.70
2018-09-26T00:29:11.321Z,84.51
2018-09-26T00:30:15.775Z,84.58
2018-09-26T00:31:20.240Z,84.92
2018-09-26T00:32:24.672Z,84.86
2018-09-26T00:33:29.129Z,84.95
2018-09-26T00:34:33.848Z,85.24
2018-09-26T00:35:38.618Z,85.12
2018-09-26T00:36:43.021Z,85.05
2018-09-26T00:37:47.415Z,85.32
2018-09-26T00:38:51.829Z,84.88
2018-09-26T00:39:56.292Z,84.95
2018-09-26T00:41:01.009Z,85.07
2018-09-26T00:42:05.429Z,85.07
2018-09-26T00:43:09.864Z,85.52
2018-09-26T00:44:14.289Z,85.22
2018-09-26T00:45:18.718Z,84.99
2018-09-26T00:46:23.151Z,85.85
2018-09-26T00:47:27.836Z,85.61
2018-09-26T00:48:32.225Z,85.35
2018-09-26T00:49:36.633Z,86.03
2018-09-26T00:50:41.085Z,85.94
2018-09-26T00:51:45.510Z,86.33
2018-09-26T00:52:49.959Z,85.93
2018-09-26T00:53:54.766Z,86.10
2018-09-26T00:54:59.592Z,86.32
2018-09-26T00:56:05.029Z,86.34
2018-09-26T00:57:09.491Z,86.41
2018-09-26T00:58:13.932Z,86.13
2018-09-26T00:59:18.443Z,86.37
2018-09-26T01:00:23.171Z,86.51
2018-09-26T01:01:27.624Z,85.88
2018-09-26T01:02:32.885Z,85.78
2018-09-26T01:03:37.336Z,86.08
2018-09-26T01:04:41.749Z,85.92
2018-09-26T01:05:46.209Z,86.00
2018-09-26T01:06:50.929Z,86.14
2018-09-26T01:07:55.366Z,85.85
2018-09-26T01:08:59.846Z,85.78
2018-09-26T01:10:04.555Z,86.37
2018-09-26T01:11:08.969Z,86.45
2018-09-26T01:12:13.504Z,86.06
2018-09-26T01:13:18.288Z,86.09
2018-09-26T01:14:22.945Z,86.48
2018-09-26T01:15:27.336Z,86.36
2018-09-26T01:16:31.783Z,86.45
2018-09-26T01:17:36.224Z,86.83
2018-09-26T01:18:40.708Z,86.93
2018-09-26T01:19:45.455Z,86.59
2018-09-26T01:20:50.610Z,86.79
2018-09-26T01:21:55.039Z,86.64
2018-09-26T01:22:59.519Z,87.01
2018-09-26T01:24:03.925Z,86.85
2018-09-26T01:25:08.441Z,86.79
2018-09-26T01:26:13.166Z,87.00
2018-09-26T01:27:17.611Z,87.30
2018-09-26T01:28:22.006Z,86.73
2018-09-26T01:29:26.421Z,86.82
2018-09-26T01:30:30.854Z,86.96
2018-09-26T01:31:35.345Z,87.64
2018-09-26T01:32:40.058Z,87.53
2018-09-26T01:33:44.583Z,87.35
2018-09-26T01:34:49.027Z,87.01
2018-09-26T01:35:53.457Z,87.39
2018-09-26T01:36:57.993Z,87.59
2018-09-26T01:38:02.500Z,87.52
2018-09-26T01:39:07.912Z,87.39
2018-09-26T01:40:12.534Z,87.14
2018-09-26T01:41:17.056Z,87.72
2018-09-26T01:42:21.552Z,87.51
2018-09-26T01:43:25.981Z,87.54
2018-09-26T01:44:30.408Z,87.33
2018-09-26T01:45:35.137Z,87.36
2018-09-26T01:46:39.585Z,87.96
2018-09-26T01:47:44.013Z,87.15
2018-09-26T01:48:48.443Z,87.12
2018-09-26T01:49:53.010Z,87.42
2018-09-26T01:50:57.436Z,87.79
2018-09-26T01:52:01.884Z,87.10
2018-09-26T01:53:06.576Z,87.30
2018-09-26T01:54:11.084Z,86.97
2018-09-26T01:55:15.645Z,87.49
2018-09-26T01:56:20.094Z,86.85
2018-09-26T01:57:24.563Z,86.76
2018-09-26T01:58:30.344Z,86.56
2018-09-26T01:59:35.486Z,86.85
2018-09-26T02:00:39.904Z,86.80
2018-09-26T02:01:44.312Z,86.71
2018-09-26T02:02:49.521Z,86.43
2018-09-26T02:03:54.540Z,86.53
2018-09-26T02:04:58.959Z,86.42
2018-09-26T02:06:03.469Z,86.66
2018-09-26T02:07:08.910Z,86.56
2018-09-26T02:08:13.303Z,86.19
2018-09-26T02:09:17.718Z,86.62
2018-09-26T02:10:22.420Z,86.33
2018-09-26T02:11:26.856Z,86.30
2018-09-26T02:12:31.333Z,86.17
2018-09-26T02:13:35.791Z,86.38
2018-09-26T02:14:40.246Z,86.07
2018-09-26T02:15:44.698Z,86.42
2018-09-26T02:16:49.101Z,86.28
2018-09-26T02:17:53.544Z,86.21
2018-09-26T02:18:57.977Z,86.56
2018-09-26T02:20:02.453Z,86.13
2018-09-26T02:21:06.863Z,86.11
2018-09-26T02:22:12.191Z,86.37
2018-09-26T02:23:16.640Z,86.11
2018-09-26T02:24:22.068Z,86.59
2018-09-26T02:25:26.473Z,86.58
2018-09-26T02:26:30.888Z,86.38
2018-09-26T02:27:35.970Z,86.55
2018-09-26T02:28:40.705Z,86.85
2018-09-26T02:29:45.101Z,86.71
2018-09-26T02:30:49.562Z,86.32
2018-09-26T02:31:54.571Z,86.79
2018-09-26T02:32:59.013Z,87.05
2018-09-26T02:34:03.533Z,86.87
2018-09-26T02:35:08.386Z,87.20
2018-09-26T02:36:12.858Z,87.35
2018-09-26T02:37:17.293Z,86.77
2018-09-26T02:38:21.673Z,86.82
2018-09-26T02:39:26.068Z,87.07
2018-09-26T02:40:30.475Z,87.10
2018-09-26T02:41:35.244Z,86.80
2018-09-26T02:42:39.678Z,86.76
2018-09-26T02:43:44.137Z,86.37
2018-09-26T02:44:49.544Z,86.80
2018-09-26T02:45:53.940Z,86.75
2018-09-26T02:46:58.351Z,86.77
2018-09-26T02:48:03.096Z,87.05
2018-09-26T02:49:07.968Z,87.00
2018-09-26T02:50:12.435Z,86.78
2018-09-26T02:51:16.867Z,87.06
2018-09-26T02:52:21.260Z,86.99
2018-09-26T02:53:25.659Z,87.06
2018-09-26T02:54:30.353Z,87.28
2018-09-26T02:55:36.272Z,87.26
2018-09-26T02:56:40.722Z,87.44
2018-09-26T02:57:45.155Z,87.33
2018-09-26T02:58:50.235Z,87.50
2018-09-26T02:59:54.630Z,87.32
2018-09-26T03:01:02.510Z,87.21
2018-09-26T03:02:07.045Z,87.41
2018-09-26T03:03:11.502Z,87.62
2018-09-26T03:04:15.945Z,87.78
2018-09-26T03:05:20.505Z,87.26
2018-09-26T03:06:24.937Z,87.02
2018-09-26T03:07:29.693Z,87.18
2018-09-26T03:08:34.099Z,87.77
2018-09-26T03:09:38.545Z,87.32
2018-09-26T03:10:43.011Z,87.40
2018-09-26T03:11:47.449Z,87.97
2018-09-26T03:12:51.872Z,88.37
2018-09-26T03:13:56.586Z,88.45
2018-09-26T03:15:01.923Z,87.75
2018-09-26T03:16:06.437Z,88.25
2018-09-26T03:17:10.862Z,88.28
2018-09-26T03:18:15.338Z,88.38
2018-09-26T03:19:19.739Z,88.40
2018-09-26T03:20:24.445Z,88.00
2018-09-26T03:21:28.847Z,88.04
2018-09-26T03:22:33.264Z,87.60
2018-09-26T03:23:37.664Z,87.99
2018-09-26T03:24:42.075Z,88.10
2018-09-26T03:25:46.516Z,88.16
2018-09-26T03:26:51.526Z,88.39
2018-09-26T03:27:55.956Z,87.86
2018-09-26T03:29:00.423Z,87.57
2018-09-26T03:30:04.884Z,88.07
2018-09-26T03:31:09.333Z,87.62
2018-09-26T03:32:13.828Z,87.23
2018-09-26T03:33:18.761Z,87.43
2018-09-26T03:34:23.175Z,87.89
2018-09-26T03:35:27.644Z,88.26
2018-09-26T03:36:32.244Z,88.19
2018-09-26T03:37:36.707Z,88.35
2018-09-26T03:38:41.132Z,88.25
2018-09-26T03:39:45.879Z,87.97
2018-09-26T03:40:50.354Z,88.10
2018-09-26T03:41:54.741Z,88.45
2018-09-26T03:42:59.165Z,88.51
2018-09-26T03:44:03.606Z,88.85
2018-09-26T03:45:08.261Z,88.82
2018-09-26T03:46:14.042Z,88.93
2018-09-26T03:47:18.485Z,88.34
2018-09-26T03:48:23.681Z,88.68
2018-09-26T03:49:28.162Z,88.64
2018-09-26T03:50:32.652Z,88.25
2018-09-26T03:51:37.147Z,88.47
2018-09-26T03:52:41.881Z,88.68
2018-09-26T03:53:46.475Z,88.41
2018-09-26T03:54:50.931Z,87.91
2018-09-26T03:55:55.376Z,88.03
2018-09-26T03:56:59.853Z,87.75
2018-09-26T03:58:04.374Z,88.07
2018-09-26T03:59:09.093Z,88.15
2018-09-26T04:00:13.538Z,88.21
2018-09-26T04:01:17.980Z,87.96
2018-09-26T04:02:22.409Z,87.78
2018-09-26T04:03:26.809Z,88.56
2018-09-26T04:04:31.262Z,88.54
2018-09-26T04:05:35.961Z,88.17
2018-09-26T04:06:40.407Z,88.14
2018-09-26T04:07:44.834Z,88.92
2018-09-26T04:08:49.270Z,88.63
2018-09-26T04:09:53.692Z,88.82
2018-09-26T04:10:58.122Z,88.61
2018-09-26T04:12:02.803Z,88.81
2018-09-26T04:13:07.262Z,89.01
2018-09-26T04:14:11.729Z,88.94
2018-09-26T04:15:16.287Z,88.80
2018-09-26T04:16:21.164Z,88.40
2018-09-26T04:17:25.578Z,89.22
2018-09-26T04:18:30.473Z,89.29
2018-09-26T04:19:34.997Z,89.35
2018-09-26T04:20:39.425Z,88.81
2018-09-26T04:21:43.817Z,89.05
2018-09-26T04:22:48.304Z,88.88
2018-09-26T04:23:52.772Z,89.05
2018-09-26T04:24:57.565Z,89.09
2018-09-26T04:26:02.285Z,88.98
2018-09-26T04:27:06.794Z,89.71
2018-09-26T04:28:11.283Z,89.44
2018-09-26T04:29:15.792Z,89.61
2018-09-26T04:30:21.388Z,90.00
2018-09-26T04:31:28.092Z,89.39
2018-09-26T04:32:34.870Z,90.17
2018-09-26T04:33:41.410Z,89.50
2018-09-26T04:34:46.899Z,89.29
2018-09-26T04:35:53.289Z,90.00
2018-09-26T04:36:58.973Z,90.13
2018-09-26T04:38:04.872Z,89.29
2018-09-26T04:39:14.413Z,89.31
2018-09-26T04:40:22.894Z,89.79
2018-09-26T04:41:31.186Z,89.35
2018-09-26T04:42:37.621Z,89.28
2018-09-26T04:43:43.187Z,89.51
2018-09-26T04:44:51.114Z,89.13
2018-09-26T04:45:56.262Z,89.86
2018-09-26T04:47:03.832Z,89.34
2018-09-26T04:48:09.202Z,89.50
2018-09-26T04:49:15.389Z,89.27
2018-09-26T04:50:25.993Z,89.06
2018-09-26T04:51:32.178Z,89.26
2018-09-26T04:52:37.709Z,88.96
2018-09-26T04:53:47.804Z,89.35
2018-09-26T04:54:54.193Z,89.61
2018-09-26T04:56:01.098Z,89.64
2018-09-26T04:57:08.672Z,89.52
2018-09-26T04:58:14.763Z,89.99
2018-09-26T04:59:21.326Z,90.08
2018-09-26T05:00:27.211Z,90.10
2018-09-26T05:01:33.080Z,89.79
2018-09-26T05:02:38.263Z,90.02
2018-09-26T05:03:44.596Z,89.31
2018-09-26T05:04:49.820Z,89.95
2018-09-26T05:05:55.542Z,89.63
2018-09-26T05:07:00.729Z,89.26
2018-09-26T05:08:06.308Z,90.02
2018-09-26T05:09:12.421Z,89.81
2018-09-26T05:10:17.675Z,90.07
2018-09-26T05:11:23.119Z,89.66
2018-09-26T05:12:28.785Z,90.13
2018-09-26T05:13:33.862Z,90.23
2018-09-26T05:14:39.080Z,89.97
2018-09-26T05:15:44.976Z,90.07
2018-09-26T05:16:50.219Z,90.63
2018-09-26T05:17:55.403Z,90.71
2018-09-26T05:19:00.084Z,90.49
2018-09-26T05:20:04.665Z,91.04
2018-09-26T05:21:10.043Z,90.97
2018-09-26T05:22:15.800Z,90.93
2018-09-26T05:23:20.226Z,90.54
2018-09-26T05:24:24.641Z,90.86
2018-09-26T05:25:29.431Z,90.99
2018-09-26T05:26:34.771Z,90.97
2018-09-26T05:27:39.278Z,90.39
2018-09-26T05:28:44.642Z,90.77
2018-09-26T05:29:49.149Z,90.33
2018-09-26T05:44:22.650Z,91.09
2018-09-26T05:45:27.954Z,90.95
2018-09-26T05:46:32.545Z,90.33
2018-09-26T05:47:36.974Z,90.64
2018-09-26T05:48:41.384Z,90.83
2018-09-26T05:49:46.315Z,91.02
2018-09-26T05:50:50.786Z,90.42
2018-09-26T05:51:56.100Z,90.96
2018-09-26T05:53:01.118Z,90.98
2018-09-26T05:54:05.582Z,90.63
2018-09-26T05:55:11.658Z,91.03
2018-09-26T05:56:17.112Z,91.07
2018-09-26T05:57:21.914Z,90.86
2018-09-26T05:58:27.405Z,90.70
2018-09-26T05:59:33.020Z,91.09
2018-09-26T06:00:38.122Z,91.20
2018-09-26T06:01:43.694Z,91.33
2018-09-26T06:02:50.415Z,91.04
2018-09-26T06:03:54.979Z,91.25
2018-09-26T06:05:00.069Z,90.60
2018-09-26T06:06:05.969Z,90.90
2018-09-26T06:07:11.713Z,90.99
2018-09-26T06:08:17.472Z,91.04
2018-09-26T06:09:23.746Z,90.78
2018-09-26T06:10:28.333Z,91.17
2018-09-26T06:11:32.930Z,90.75
2018-09-26T06:12:37.371Z,90.81
2018-09-26T06:13:41.971Z,91.34
2018-09-26T06:14:47.163Z,91.16
2018-09-26T06:15:53.059Z,91.13
2018-09-26T06:16:57.490Z,91.50
2018-09-26T06:18:01.959Z,90.90
2018-09-26T06:19:06.570Z,91.21
2018-09-26T06:20:11.129Z,90.43
2018-09-26T06:21:15.673Z,90.37
2018-09-26T06:22:20.783Z,90.42
2018-09-26T06:23:25.529Z,90.28
2018-09-26T06:24:30.266Z,90.08
2018-09-26T06:25:35.185Z,90.25
2018-09-26T06:26:39.638Z,89.86
2018-09-26T06:27:45.133Z,89.91
2018-09-26T06:28:50.146Z,90.29
2018-09-26T06:29:54.777Z,90.20
2018-09-26T06:30:59.405Z,90.14
2018-09-26T06:32:03.923Z,90.06
2018-09-26T06:33:08.977Z,90.06
2018-09-26T06:34:13.518Z,89.90
2018-09-26T06:35:18.968Z,89.86
2018-09-26T06:36:23.770Z,89.95
2018-09-26T06:37:29.125Z,89.40
2018-09-26T06:38:34.307Z,89.42
2018-09-26T06:39:39.084Z,89.52
2018-09-26T06:40:43.500Z,89.05
2018-09-26T06:41:48.320Z,89.58
2018-09-26T06:42:52.739Z,89.47
2018-09-26T06:43:57.198Z,89.34
2018-09-26T06:45:02.337Z,88.94
2018-09-26T06:46:07.409Z,88.59
2018-09-26T06:47:11.871Z,88.10
2018-09-26T06:48:16.974Z,87.71
2018-09-26T06:49:21.695Z,87.47
2018-09-26T06:50:26.321Z,86.89
2018-09-26T06:51:30.780Z,86.07
2018-09-26T06:52:35.192Z,85.29
2018-09-26T06:53:39.605Z,84.39
2018-09-26T06:54:44.788Z,83.99
2018-09-26T06:55:50.605Z,83.58
2018-09-26T06:56:55.458Z,82.89
2018-09-26T06:58:01.211Z,82.44
2018-09-26T06:59:05.733Z,82.15
2018-09-26T07:00:11.261Z,81.65
2018-09-26T07:01:15.953Z,80.85
2018-09-26T07:02:21.047Z,80.10
2018-09-26T07:03:25.680Z,77.88
2018-09-26T07:04:30.262Z,77.19
2018-09-26T07:05:36.565Z,73.69
2018-09-26T07:07:50.533Z,71.32
2018-09-26T07:08:56.507Z,71.10
2018-09-26T07:10:01.049Z,70.42
2018-09-26T07:11:05.472Z,69.74
2018-09-26T07:12:09.940Z,69.15
2018-09-26T07:13:14.889Z,68.39
2018-09-26T07:14:20.684Z,68.18
2018-09-26T07:15:26.236Z,67.98
2018-09-26T07:16:30.691Z,66.87
2018-09-26T07:17:35.713Z,65.94
2018-09-26T07:18:40.160Z,65.79
2018-09-26T07:19:44.607Z,64.95
2018-09-26T07:20:49.130Z,64.13
2018-09-26T07:21:54.876Z,62.98
2018-09-26T07:22:59.404Z,62.89
2018-09-26T07:24:05.437Z,62.25
2018-09-26T07:25:09.959Z,61.13
2018-09-26T07:26:15.386Z,59.70
2018-09-26T07:27:19.902Z,58.70
2018-09-26T07:28:26.320Z,56.68
2018-09-26T07:29:32.335Z,56.81
2018-09-26T07:30:36.844Z,57.13
2018-09-26T07:31:41.686Z,57.82
2018-09-26T07:32:46.224Z,57.27
2018-09-26T07:33:50.775Z,56.08
2018-09-26T07:34:55.219Z,55.63
2018-09-26T07:36:00.977Z,55.24
2018-09-26T07:37:05.715Z,54.99
2018-09-26T07:38:10.203Z,54.89
2018-09-26T07:39:16.174Z,55.47
2018-09-26T07:40:21.126Z,55.48
2018-09-26T07:41:25.758Z,55.08
2018-09-26T07:42:30.579Z,55.39
2018-09-26T07:43:35.763Z,55.62
2018-09-26T07:44:40.305Z,55.54
2018-09-26T07:45:45.168Z,55.58
2018-09-26T07:46:52.382Z,54.48
2018-09-26T07:47:56.859Z,52.92
2018-09-26T07:49:01.809Z,53.55
2018-09-26T07:50:06.441Z,53.49
2018-09-26T07:51:11.853Z,53.88
2018-09-26T07:52:17.946Z,54.50
2018-09-26T07:53:22.517Z,54.21
2018-09-26T07:54:26.957Z,53.92
2018-09-26T07:55:31.710Z,53.52
2018-09-26T07:56:36.520Z,53.32
2018-09-26T07:57:42.235Z,52.48
2018-09-26T07:58:49.321Z,51.82
2018-09-26T07:59:55.697Z,52.11
2018-09-26T08:01:00.606Z,51.40
2018-09-26T08:02:05.535Z,51.67
2018-09-26T08:03:12.643Z,51.24
2018-09-26T08:04:17.225Z,50.10
2018-09-26T08:05:24.709Z,50.48
2018-09-26T08:06:31.498Z,49.39
2018-09-26T08:07:37.315Z,48.38
2018-09-26T08:08:44.244Z,47.46
2018-09-26T08:09:49.437Z,46.96
2018-09-26T08:10:54.220Z,47.22
2018-09-26T08:11:59.674Z,47.15
2018-09-26T08:13:04.398Z,46.95
2018-09-26T08:14:09.851Z,46.34
2018-09-26T08:15:16.152Z,45.84
2018-09-26T08:16:22.702Z,44.80
2018-09-26T08:17:29.481Z,45.51
2018-09-26T08:18:34.245Z,45.45
2018-09-26T08:19:39.729Z,46.35
2018-09-26T08:20:46.591Z,45.67
2018-09-26T08:21:52.334Z,44.45
2018-09-26T08:22:57.268Z,43.35
2018-09-26T08:24:01.829Z,44.06
2018-09-26T08:25:06.997Z,45.50
2018-09-26T08:26:11.593Z,45.28
2018-09-26T08:27:16.843Z,44.04
2018-09-26T08:28:21.681Z,44.08
2018-09-26T08:29:29.246Z,44.55
2018-09-26T08:30:33.764Z,43.39
2018-09-26T08:31:39.307Z,42.71
2018-09-26T08:32:43.892Z,41.99
2018-09-26T08:33:48.437Z,40.86
2018-09-26T08:34:53.444Z,40.82
2018-09-26T08:35:58.123Z,40.31
2018-09-26T08:37:02.574Z,41.64
2018-09-26T08:38:07.102Z,41.47
2018-09-26T08:39:15.324Z,42.18
2018-09-26T08:40:21.042Z,41.51
2018-09-26T08:41:26.079Z,41.06
2018-09-26T08:42:35.583Z,40.46
2018-09-26T08:43:40.282Z,40.59
2018-09-26T08:44:44.758Z,41.13
2018-09-26T08:45:49.273Z,40.99
2018-09-26T08:46:53.771Z,41.54
2018-09-26T08:47:58.589Z,41.97
2018-09-26T08:49:04.831Z,42.18
2018-09-26T08:50:09.987Z,42.13
2018-09-26T08:51:14.980Z,40.83
2018-09-26T08:52:19.578Z,41.07
2018-09-26T08:53:24.005Z,40.27
2018-09-26T08:54:28.994Z,38.82
2018-09-26T08:55:33.592Z,38.14
2018-09-26T08:56:38.153Z,38.46
2018-09-26T08:57:42.642Z,37.21
2018-09-26T08:58:47.159Z,37.09
2018-09-26T08:59:51.771Z,36.53
2018-09-26T09:00:56.885Z,35.39
2018-09-26T09:02:04.792Z,35.17
2018-09-26T09:03:09.231Z,34.36
2018-09-26T09:04:13.860Z,34.44
2018-09-26T09:05:20.676Z,35.58
2018-09-26T09:06:29.322Z,35.78
2018-09-26T09:07:34.782Z,35.42
2018-09-26T09:08:39.252Z,35.82
2018-09-26T09:09:43.758Z,35.38
2018-09-26T09:10:48.790Z,35.94
2018-09-26T09:11:54.140Z,36.12
2018-09-26T09:12:58.953Z,37.38
2018-09-26T09:14:04.459Z,37.33
2018-09-26T09:15:09.759Z,36.55
2018-09-26T09:16:14.306Z,36.36
2018-09-26T09:17:18.785Z,36.24
2018-09-26T09:18:23.259Z,35.91
2018-09-26T09:19:28.849Z,35.07
2018-09-26T09:20:33.692Z,34.70
2018-09-26T09:21:39.823Z,33.46
2018-09-26T09:22:44.684Z,34.06
2018-09-26T09:23:50.031Z,35.20
2018-09-26T09:24:55.456Z,35.53
2018-09-26T09:26:01.006Z,35.63
2018-09-26T09:27:05.986Z,35.10
2018-09-26T09:28:11.172Z,35.54
2018-09-26T09:29:17.431Z,35.14
2018-09-26T09:30:22.699Z,36.29
2018-09-26T09:31:27.384Z,36.71
2018-09-26T09:32:31.928Z,36.84
2018-09-26T09:33:38.846Z,37.16
2018-09-26T09:34:45.015Z,37.27
2018-09-26T09:35:50.437Z,37.18
2018-09-26T09:37:01.705Z,37.24
2018-09-26T09:38:08.137Z,37.16
2018-09-26T09:39:12.583Z,37.02
2018-09-26T09:40:17.231Z,37.65
2018-09-26T09:41:22.594Z,38.07
2018-09-26T09:42:27.195Z,37.35
2018-09-26T09:43:31.673Z,37.21
2018-09-26T09:44:36.108Z,37.76
2018-09-26T09:45:41.306Z,36.71
2018-09-26T09:46:46.822Z,37.05
2018-09-26T09:47:51.352Z,37.54
2018-09-26T09:48:56.553Z,37.66
2018-09-26T09:50:01.082Z,36.99
2018-09-26T09:51:06.333Z,35.75
2018-09-26T09:52:11.005Z,35.50
2018-09-26T09:53:19.343Z,34.87
2018-09-26T09:54:26.932Z,33.47
2018-09-26T09:55:33.778Z,33.45
2018-09-26T09:56:38.249Z,33.14
2018-09-26T09:57:42.748Z,33.16
2018-09-26T09:58:47.234Z,33.34
2018-09-26T09:59:53.387Z,33.94
2018-09-26T10:01:03.078Z,34.27
2018-09-26T10:02:07.637Z,35.42
2018-09-26T10:03:13.778Z,35.78
2018-09-26T10:04:20.560Z,35.97
2018-09-26T10:05:27.311Z,36.49
2018-09-26T10:06:34.299Z,36.30
2018-09-26T10:07:42.262Z,36.29
2018-09-26T10:08:46.815Z,36.90
2018-09-26T10:09:51.436Z,36.55
2018-09-26T10:10:56.627Z,36.72
2018-09-26T10:12:03.308Z,36.50
2018-09-26T10:13:09.010Z,37.18
2018-09-26T10:14:13.679Z,37.70
2018-09-26T10:15:18.276Z,37.39
2018-09-26T10:16:23.444Z,36.81
2018-09-26T10:17:28.126Z,37.34
2018-09-26T10:18:35.750Z,37.09
2018-09-26T10:19:41.170Z,37.16
2018-09-26T10:20:46.883Z,37.24
2018-09-26T10:21:53.381Z,37.78
2018-09-26T10:22:58.942Z,37.10
2018-09-26T10:24:04.314Z,36.87
2018-09-26T10:25:09.148Z,36.74
2018-09-26T10:26:13.935Z,37.00
2018-09-26T10:27:19.055Z,37.34
2018-09-26T10:28:25.233Z,38.01
2018-09-26T10:29:29.685Z,38.58
2018-09-26T10:30:40.607Z,38.66
2018-09-26T10:43:33.279Z,39.39
2018-09-26T10:44:39.092Z,38.97
2018-09-26T10:45:43.600Z,39.19
2018-09-26T10:46:48.085Z,39.09
2018-09-26T10:47:52.877Z,38.75
2018-09-26T10:48:59.426Z,38.72
2018-09-26T10:50:03.983Z,38.39
2018-09-26T10:51:08.672Z,38.70
2018-09-26T10:52:13.409Z,38.79
2018-09-26T10:53:17.907Z,38.82
2018-09-26T10:54:22.326Z,38.43
2018-09-26T10:55:29.283Z,38.45
2018-09-26T10:56:34.809Z,38.58
2018-09-26T10:57:39.463Z,39.32
2018-09-26T10:58:45.637Z,39.34
2018-09-26T10:59:50.507Z,38.55
2018-09-26T11:00:56.658Z,38.81
2018-09-26T11:02:01.713Z,37.64
2018-09-26T11:03:06.141Z,38.07
2018-09-26T11:04:10.822Z,38.24
2018-09-26T11:05:18.144Z,37.89
2018-09-26T11:06:22.605Z,37.46
2018-09-26T11:07:27.429Z,37.13
2018-09-26T11:08:32.487Z,36.72
2018-09-26T11:09:38.525Z,36.05
2018-09-26T11:10:43.024Z,35.58
2018-09-26T11:11:48.835Z,34.98
2018-09-26T11:12:53.248Z,35.07
2018-09-26T11:13:57.836Z,34.47
2018-09-26T11:15:05.288Z,34.85
2018-09-26T11:16:11.707Z,35.27
2018-09-26T11:17:16.478Z,34.75
2018-09-26T11:18:21.671Z,35.09
2018-09-26T11:19:26.626Z,35.23
2018-09-26T11:20:31.355Z,34.62
2018-09-26T11:21:36.945Z,34.91
2018-09-26T11:22:42.715Z,35.39
2018-09-26T11:23:47.312Z,35.06
2018-09-26T11:24:51.799Z,34.88
2018-09-26T11:25:56.238Z,35.52
2018-09-26T11:27:01.524Z,35.36
2018-09-26T11:28:07.652Z,35.54
2018-09-26T11:29:15.531Z,36.42
2018-09-26T11:30:20.091Z,36.47
2018-09-26T11:31:25.213Z,36.31
2018-09-26T11:32:29.724Z,36.59
2018-09-26T11:33:35.262Z,36.95
2018-09-26T11:34:40.057Z,36.26
2018-09-26T11:35:45.049Z,35.81
2018-09-26T11:36:49.740Z,35.65
2018-09-26T11:37:58.203Z,35.30
2018-09-26T11:39:03.769Z,35.50
2018-09-26T11:40:09.257Z,35.87
2018-09-26T11:41:15.067Z,36.38
2018-09-26T11:42:19.606Z,36.06
2018-09-26T11:43:25.986Z,36.02
2018-09-26T11:44:30.528Z,35.92
2018-09-26T11:45:35.031Z,36.18
2018-09-26T11:46:39.462Z,35.76
2018-09-26T11:47:44.271Z,35.56
2018-09-26T11:48:48.740Z,34.93
2018-09-26T11:49:53.215Z,35.42
2018-09-26T11:50:59.217Z,35.52
2018-09-26T11:52:03.763Z,35.76
2018-09-26T11:53:08.239Z,35.48
2018-09-26T11:54:14.656Z,35.70
2018-09-26T11:55:19.412Z,34.72
2018-09-26T11:56:25.376Z,34.90
2018-09-26T11:57:30.186Z,34.46
2018-09-26T11:58:34.693Z,34.14
2018-09-26T11:59:40.510Z,34.35
2018-09-26T12:00:45.541Z,33.80
2018-09-26T12:01:54.510Z,33.68
2018-09-26T12:02:59.221Z,34.84
2018-09-26T12:04:05.296Z,34.97
2018-09-26T12:05:10.277Z,35.02
2018-09-26T12:06:15.430Z,35.29
2018-09-26T12:07:24.713Z,34.82
2018-09-26T12:08:33.410Z,34.73
2018-09-26T12:09:39.931Z,34.42
2018-09-26T12:10:45.270Z,34.19
2018-09-26T12:11:50.354Z,34.11
2018-09-26T12:12:56.326Z,34.59
2018-09-26T12:14:01.720Z,33.12
2018-09-26T12:15:07.428Z,33.39
2018-09-26T12:16:12.774Z,34.01
2018-09-26T12:17:17.248Z,34.06
2018-09-26T12:19:37.766Z,34.03
2018-09-26T12:20:43.854Z,34.03
2018-09-26T12:21:48.428Z,33.97
2018-09-26T12:22:53.985Z,34.33
2018-09-26T12:23:59.180Z,33.76
2018-09-26T12:25:04.396Z,34.03
2018-09-26T12:26:09.936Z,33.83
2018-09-26T12:27:14.433Z,34.24
2018-09-26T12:28:19.658Z,33.48
2018-09-26T12:29:24.341Z,33.00
2018-09-26T12:30:30.261Z,32.99
2018-09-26T12:31:36.510Z,33.34
2018-09-26T12:32:41.073Z,33.62
2018-09-26T12:33:46.433Z,33.11
2018-09-26T12:34:51.146Z,33.28
2018-09-26T12:35:58.640Z,33.19
2018-09-26T12:37:03.246Z,32.96
2018-09-26T12:38:07.820Z,32.75
2018-09-26T12:39:12.515Z,32.51
2018-09-26T12:40:17.015Z,32.07
2018-09-26T12:41:22.817Z,32.28
2018-09-26T12:42:28.410Z,31.89
2018-09-26T12:43:34.621Z,31.69
2018-09-26T12:44:42.359Z,31.48
2018-09-26T12:45:50.600Z,31.24
2018-09-26T12:46:58.021Z,31.24
2018-09-26T12:48:04.054Z,31.20
2018-09-26T12:49:08.526Z,30.99
2018-09-26T12:50:13.139Z,31.32
2018-09-26T12:51:17.539Z,32.33
2018-09-26T12:52:23.102Z,31.88
2018-09-26T12:53:27.624Z,31.47
2018-09-26T12:54:34.676Z,31.16
2018-09-26T12:55:41.331Z,30.90
2018-09-26T12:56:48.774Z,30.40
2018-09-26T12:57:55.441Z,30.39
2018-09-26T12:59:01.859Z,29.79
2018-09-26T13:00:07.871Z,30.33
2018-09-26T13:01:14.319Z,29.79
2018-09-26T13:02:19.102Z,30.02
2018-09-26T13:03:23.546Z,30.11
2018-09-26T13:04:28.257Z,29.75
2018-09-26T13:05:33.647Z,29.62
2018-09-26T13:06:40.921Z,29.55
2018-09-26T13:07:46.505Z,30.25
2018-09-26T13:08:51.365Z,31.27
2018-09-26T13:09:55.863Z,30.90
2018-09-26T13:11:01.692Z,30.81
2018-09-26T13:12:07.403Z,31.33
2018-09-26T13:13:12.972Z,31.32
2018-09-26T13:14:18.081Z,31.15
2018-09-26T13:15:23.466Z,31.59
2018-09-26T13:16:27.948Z,31.98
2018-09-26T13:17:32.414Z,31.99
2018-09-26T13:18:36.821Z,32.11
2018-09-26T13:19:41.356Z,32.58
2018-09-26T13:20:47.233Z,32.27
2018-09-26T13:21:53.653Z,32.08
2018-09-26T13:22:58.922Z,32.22
2018-09-26T13:24:04.672Z,31.55
2018-09-26T13:25:09.172Z,31.18
2018-09-26T13:26:14.664Z,30.41
2018-09-26T13:27:20.513Z,30.54
2018-09-26T13:28:25.036Z,31.22
2018-09-26T13:29:29.479Z,30.68
2018-09-26T13:30:33.937Z,30.90
2018-09-26T13:31:38.865Z,30.62
2018-09-26T13:32:44.377Z,29.68
2018-09-26T13:33:49.335Z,29.32
2018-09-26T13:34:54.571Z,29.51
2018-09-26T13:35:59.028Z,28.65
2018-09-26T13:37:10.863Z,28.21
2018-09-26T13:38:15.557Z,27.89
2018-09-26T13:39:21.257Z,28.35
2018-09-26T13:40:28.012Z,27.58
2018-09-26T13:41:34.274Z,27.47
2018-09-26T13:42:43.458Z,26.65
2018-09-26T13:43:47.892Z,26.70
2018-09-26T13:44:53.462Z,27.62
2018-09-26T13:45:59.742Z,26.46
2018-09-26T13:47:06.077Z,25.90
2018-09-26T13:48:13.356Z,26.84
2018-09-26T13:49:18.390Z,25.14
2018-09-26T13:50:22.908Z,25.35
2018-09-26T13:51:28.867Z,25.50
2018-09-26T13:52:34.817Z,25.02
2018-09-26T13:53:40.164Z,24.68
2018-09-26T13:54:45.453Z,24.88
2018-09-26T13:55:50.676Z,25.32
2018-09-26T13:56:57.271Z,24.93
2018-09-26T13:58:02.525Z,24.24
2018-09-26T13:59:10.436Z,24.42
2018-09-26T14:00:18.562Z,23.87
2018-09-26T14:01:26.412Z,25.77
2018-09-26T14:02:32.782Z,24.99
2018-09-26T14:03:37.333Z,23.76
2018-09-26T14:04:42.145Z,24.43
2018-09-26T14:05:50.103Z,24.99
2018-09-26T14:06:56.874Z,24.74
2018-09-26T14:08:03.948Z,24.91
2018-09-26T14:09:15.050Z,25.29
2018-09-26T14:10:19.611Z,24.83
2018-09-26T14:11:28.612Z,23.98
2018-09-26T14:12:34.295Z,23.65
2018-09-26T14:13:42.383Z,24.56
2018-09-26T14:14:50.007Z,24.59
2018-09-26T14:15:57.398Z,24.67
2018-09-26T14:17:07.391Z,23.61
2018-09-26T14:18:15.425Z,23.56
2018-09-26T14:19:21.464Z,22.58
2018-09-26T14:20:26.092Z,23.03
2018-09-26T14:21:31.264Z,22.21
2018-09-26T14:22:36.515Z,23.20
2018-09-26T14:23:41.153Z,23.06
2018-09-26T14:24:46.049Z,21.62
2018-09-26T14:25:51.460Z,22.50
2018-09-26T14:26:56.142Z,21.19
2018-09-26T14:28:01.498Z,21.47